sensor_id;sensor_type;location;lat;lon;timestamp;P1;durP1;ratioP1;P2;durP2;ratioP2
65471;SDS011;52068;50.710;14.492;2024-02-21T00:00:51;5.65;;;3.05;;
65471;SDS011;52068;50.710;14.492;2024-02-21T00:03:17;4.90;;;2.92;;
65471;SDS011;52068;50.710;14.492;2024-02-21T00:05:42;3.92;;;2.85;;
65471;SDS011;52068;50.710;14.492;2024-02-21T00:08:08;6.22;;;3.33;;
65471;SDS011;52068;50.710;14.492;2024-02-21T00:10:33;5.05;;;2.78;;
65471;SDS011;52068;50.710;14.492;2024-02-21T00:13:00;3.45;;;2.92;;
65471;SDS011;52068;50.710;14.492;2024-02-21T00:15:25;5.18;;;3.42;;
65471;SDS011;52068;50.710;14.492;2024-02-21T00:17:51;4.30;;;3.08;;
65471;SDS011;52068;50.710;14.492;2024-02-21T00:20:16;4.22;;;2.90;;
65471;SDS011;52068;50.710;14.492;2024-02-21T00:22:42;5.55;;;3.03;;
65471;SDS011;52068;50.710;14.492;2024-02-21T00:25:08;4.75;;;3.17;;
65471;SDS011;52068;50.710;14.492;2024-02-21T00:27:33;5.25;;;3.33;;
65471;SDS011;52068;50.710;14.492;2024-02-21T00:29:59;4.32;;;2.95;;
65471;SDS011;52068;50.710;14.492;2024-02-21T00:32:24;4.32;;;3.03;;
65471;SDS011;52068;50.710;14.492;2024-02-21T00:34:49;5.85;;;3.25;;
65471;SDS011;52068;50.710;14.492;2024-02-21T00:37:15;4.63;;;2.75;;
65471;SDS011;52068;50.710;14.492;2024-02-21T00:39:40;5.50;;;3.30;;
65471;SDS011;52068;50.710;14.492;2024-02-21T00:42:07;3.90;;;3.13;;
65471;SDS011;52068;50.710;14.492;2024-02-21T00:44:32;4.85;;;3.03;;
65471;SDS011;52068;50.710;14.492;2024-02-21T00:46:58;7.50;;;3.20;;
65471;SDS011;52068;50.710;14.492;2024-02-21T00:49:23;5.32;;;3.40;;
65471;SDS011;52068;50.710;14.492;2024-02-21T00:51:49;4.47;;;3.40;;
65471;SDS011;52068;50.710;14.492;2024-02-21T00:54:14;3.85;;;2.78;;
65471;SDS011;52068;50.710;14.492;2024-02-21T00:56:39;4.35;;;2.80;;
65471;SDS011;52068;50.710;14.492;2024-02-21T00:59:05;3.85;;;2.88;;
65471;SDS011;52068;50.710;14.492;2024-02-21T01:01:30;5.00;;;3.20;;
65471;SDS011;52068;50.710;14.492;2024-02-21T01:03:55;5.40;;;3.15;;
65471;SDS011;52068;50.710;14.492;2024-02-21T01:06:21;5.30;;;2.90;;
65471;SDS011;52068;50.710;14.492;2024-02-21T01:08:47;4.55;;;2.88;;
65471;SDS011;52068;50.710;14.492;2024-02-21T01:11:13;5.43;;;3.28;;
65471;SDS011;52068;50.710;14.492;2024-02-21T01:13:39;6.18;;;3.33;;
65471;SDS011;52068;50.710;14.492;2024-02-21T01:16:04;4.28;;;3.08;;
65471;SDS011;52068;50.710;14.492;2024-02-21T01:18:31;5.05;;;3.20;;
65471;SDS011;52068;50.710;14.492;2024-02-21T01:20:57;4.35;;;2.92;;
65471;SDS011;52068;50.710;14.492;2024-02-21T01:23:22;4.18;;;2.95;;
65471;SDS011;52068;50.710;14.492;2024-02-21T01:25:48;4.35;;;2.80;;
65471;SDS011;52068;50.710;14.492;2024-02-21T01:28:13;5.60;;;3.30;;
65471;SDS011;52068;50.710;14.492;2024-02-21T01:30:38;5.20;;;3.10;;
65471;SDS011;52068;50.710;14.492;2024-02-21T01:33:04;4.05;;;2.78;;
65471;SDS011;52068;50.710;14.492;2024-02-21T01:35:29;4.70;;;2.97;;
65471;SDS011;52068;50.710;14.492;2024-02-21T01:37:55;4.80;;;3.05;;
65471;SDS011;52068;50.710;14.492;2024-02-21T01:40:20;4.00;;;2.83;;
65471;SDS011;52068;50.710;14.492;2024-02-21T01:42:45;3.20;;;2.50;;
65471;SDS011;52068;50.710;14.492;2024-02-21T01:45:12;5.10;;;3.08;;
65471;SDS011;52068;50.710;14.492;2024-02-21T01:47:38;3.85;;;2.85;;
65471;SDS011;52068;50.710;14.492;2024-02-21T01:50:04;5.03;;;2.90;;
65471;SDS011;52068;50.710;14.492;2024-02-21T01:52:29;4.63;;;2.75;;
65471;SDS011;52068;50.710;14.492;2024-02-21T01:54:56;4.13;;;2.78;;
65471;SDS011;52068;50.710;14.492;2024-02-21T01:57:22;6.28;;;3.10;;
65471;SDS011;52068;50.710;14.492;2024-02-21T01:59:49;8.50;;;3.13;;
65471;SDS011;52068;50.710;14.492;2024-02-21T02:02:14;5.10;;;2.97;;
65471;SDS011;52068;50.710;14.492;2024-02-21T02:04:41;4.30;;;2.85;;
65471;SDS011;52068;50.710;14.492;2024-02-21T02:07:07;3.63;;;2.70;;
65471;SDS011;52068;50.710;14.492;2024-02-21T02:09:33;4.43;;;2.83;;
65471;SDS011;52068;50.710;14.492;2024-02-21T02:11:59;4.07;;;2.72;;
65471;SDS011;52068;50.710;14.492;2024-02-21T02:14:25;3.75;;;2.92;;
65471;SDS011;52068;50.710;14.492;2024-02-21T02:16:50;4.85;;;2.95;;
65471;SDS011;52068;50.710;14.492;2024-02-21T02:19:16;5.47;;;3.00;;
65471;SDS011;52068;50.710;14.492;2024-02-21T02:21:42;3.97;;;2.70;;
65471;SDS011;52068;50.710;14.492;2024-02-21T02:24:13;5.18;;;2.60;;
65471;SDS011;52068;50.710;14.492;2024-02-21T02:26:39;3.85;;;2.60;;
65471;SDS011;52068;50.710;14.492;2024-02-21T02:29:05;3.55;;;2.55;;
65471;SDS011;52068;50.710;14.492;2024-02-21T02:31:30;5.65;;;2.80;;
65471;SDS011;52068;50.710;14.492;2024-02-21T02:33:55;5.55;;;3.17;;
65471;SDS011;52068;50.710;14.492;2024-02-21T02:36:21;3.20;;;2.75;;
65471;SDS011;52068;50.710;14.492;2024-02-21T02:38:46;3.53;;;2.63;;
65471;SDS011;52068;50.710;14.492;2024-02-21T02:41:11;3.83;;;2.47;;
65471;SDS011;52068;50.710;14.492;2024-02-21T02:43:37;5.05;;;2.60;;
65471;SDS011;52068;50.710;14.492;2024-02-21T02:46:02;3.35;;;2.70;;
65471;SDS011;52068;50.710;14.492;2024-02-21T02:48:28;2.83;;;2.35;;
65471;SDS011;52068;50.710;14.492;2024-02-21T02:50:54;4.35;;;2.63;;
65471;SDS011;52068;50.710;14.492;2024-02-21T02:53:19;4.00;;;2.58;;
65471;SDS011;52068;50.710;14.492;2024-02-21T02:55:45;5.75;;;2.70;;
65471;SDS011;52068;50.710;14.492;2024-02-21T02:58:10;6.40;;;2.67;;
65471;SDS011;52068;50.710;14.492;2024-02-21T03:00:35;4.50;;;2.70;;
65471;SDS011;52068;50.710;14.492;2024-02-21T03:03:01;4.40;;;3.00;;
65471;SDS011;52068;50.710;14.492;2024-02-21T03:05:29;7.13;;;2.70;;
65471;SDS011;52068;50.710;14.492;2024-02-21T03:07:54;3.70;;;2.67;;
65471;SDS011;52068;50.710;14.492;2024-02-21T03:10:20;3.30;;;2.50;;
65471;SDS011;52068;50.710;14.492;2024-02-21T03:12:45;4.63;;;2.92;;
65471;SDS011;52068;50.710;14.492;2024-02-21T03:15:11;5.00;;;2.70;;
65471;SDS011;52068;50.710;14.492;2024-02-21T03:17:37;3.50;;;2.50;;
65471;SDS011;52068;50.710;14.492;2024-02-21T03:20:03;4.28;;;2.50;;
65471;SDS011;52068;50.710;14.492;2024-02-21T03:22:35;3.92;;;2.53;;
65471;SDS011;52068;50.710;14.492;2024-02-21T03:25:01;3.72;;;2.72;;
65471;SDS011;52068;50.710;14.492;2024-02-21T03:27:27;3.58;;;2.33;;
65471;SDS011;52068;50.710;14.492;2024-02-21T03:29:52;3.90;;;2.83;;
65471;SDS011;52068;50.710;14.492;2024-02-21T03:32:18;3.92;;;2.40;;
65471;SDS011;52068;50.710;14.492;2024-02-21T03:34:43;3.60;;;2.75;;
65471;SDS011;52068;50.710;14.492;2024-02-21T03:37:08;4.25;;;2.72;;
65471;SDS011;52068;50.710;14.492;2024-02-21T03:39:34;3.80;;;2.50;;
65471;SDS011;52068;50.710;14.492;2024-02-21T03:41:59;3.95;;;2.90;;
65471;SDS011;52068;50.710;14.492;2024-02-21T03:44:30;3.33;;;2.53;;
65471;SDS011;52068;50.710;14.492;2024-02-21T03:46:56;3.38;;;2.10;;
65471;SDS011;52068;50.710;14.492;2024-02-21T03:49:22;4.20;;;2.50;;
65471;SDS011;52068;50.710;14.492;2024-02-21T03:51:47;3.40;;;2.50;;
65471;SDS011;52068;50.710;14.492;2024-02-21T03:54:13;4.82;;;2.72;;
65471;SDS011;52068;50.710;14.492;2024-02-21T03:56:38;3.55;;;2.35;;
65471;SDS011;52068;50.710;14.492;2024-02-21T03:59:07;3.85;;;2.60;;
65471;SDS011;52068;50.710;14.492;2024-02-21T04:01:33;3.72;;;2.58;;
65471;SDS011;52068;50.710;14.492;2024-02-21T04:03:59;5.53;;;2.95;;
65471;SDS011;52068;50.710;14.492;2024-02-21T04:06:25;3.85;;;2.53;;
65471;SDS011;52068;50.710;14.492;2024-02-21T04:08:50;4.75;;;2.40;;
65471;SDS011;52068;50.710;14.492;2024-02-21T04:11:15;4.38;;;2.50;;
65471;SDS011;52068;50.710;14.492;2024-02-21T04:13:42;3.72;;;2.60;;
65471;SDS011;52068;50.710;14.492;2024-02-21T04:16:07;3.25;;;2.70;;
65471;SDS011;52068;50.710;14.492;2024-02-21T04:18:33;3.97;;;2.83;;
65471;SDS011;52068;50.710;14.492;2024-02-21T04:20:58;3.97;;;2.92;;
65471;SDS011;52068;50.710;14.492;2024-02-21T04:23:23;3.47;;;2.60;;
65471;SDS011;52068;50.710;14.492;2024-02-21T04:25:49;3.95;;;2.50;;
65471;SDS011;52068;50.710;14.492;2024-02-21T04:28:14;4.10;;;2.72;;
65471;SDS011;52068;50.710;14.492;2024-02-21T04:30:40;3.63;;;2.90;;
65471;SDS011;52068;50.710;14.492;2024-02-21T04:33:05;2.75;;;2.30;;
65471;SDS011;52068;50.710;14.492;2024-02-21T04:35:30;3.60;;;2.70;;
65471;SDS011;52068;50.710;14.492;2024-02-21T04:37:56;3.90;;;2.70;;
65471;SDS011;52068;50.710;14.492;2024-02-21T04:40:21;3.85;;;2.70;;
65471;SDS011;52068;50.710;14.492;2024-02-21T04:42:46;3.08;;;2.17;;
65471;SDS011;52068;50.710;14.492;2024-02-21T04:45:12;5.13;;;2.38;;
65471;SDS011;52068;50.710;14.492;2024-02-21T04:47:37;2.92;;;2.40;;
65471;SDS011;52068;50.710;14.492;2024-02-21T04:50:03;3.33;;;2.30;;
65471;SDS011;52068;50.710;14.492;2024-02-21T04:52:28;3.15;;;2.50;;
65471;SDS011;52068;50.710;14.492;2024-02-21T04:54:54;5.63;;;2.63;;
65471;SDS011;52068;50.710;14.492;2024-02-21T04:57:20;3.28;;;2.28;;
65471;SDS011;52068;50.710;14.492;2024-02-21T04:59:45;3.33;;;2.38;;
65471;SDS011;52068;50.710;14.492;2024-02-21T05:02:12;4.05;;;2.60;;
65471;SDS011;52068;50.710;14.492;2024-02-21T05:04:38;4.35;;;2.83;;
65471;SDS011;52068;50.710;14.492;2024-02-21T05:07:05;3.25;;;2.47;;
65471;SDS011;52068;50.710;14.492;2024-02-21T05:09:30;3.45;;;2.35;;
65471;SDS011;52068;50.710;14.492;2024-02-21T05:11:56;3.40;;;2.20;;
65471;SDS011;52068;50.710;14.492;2024-02-21T05:14:23;3.05;;;1.88;;
65471;SDS011;52068;50.710;14.492;2024-02-21T05:16:48;3.38;;;2.33;;
65471;SDS011;52068;50.710;14.492;2024-02-21T05:19:13;2.95;;;2.38;;
65471;SDS011;52068;50.710;14.492;2024-02-21T05:21:39;3.67;;;2.30;;
65471;SDS011;52068;50.710;14.492;2024-02-21T05:24:04;4.18;;;2.70;;
65471;SDS011;52068;50.710;14.492;2024-02-21T05:26:30;3.78;;;2.30;;
65471;SDS011;52068;50.710;14.492;2024-02-21T05:28:55;2.80;;;2.20;;
65471;SDS011;52068;50.710;14.492;2024-02-21T05:31:21;2.50;;;2.30;;
65471;SDS011;52068;50.710;14.492;2024-02-21T05:33:46;3.15;;;2.15;;
65471;SDS011;52068;50.710;14.492;2024-02-21T05:36:12;3.65;;;2.40;;
65471;SDS011;52068;50.710;14.492;2024-02-21T05:38:38;2.97;;;2.30;;
65471;SDS011;52068;50.710;14.492;2024-02-21T05:41:04;2.67;;;2.00;;
65471;SDS011;52068;50.710;14.492;2024-02-21T05:43:30;4.75;;;2.45;;
65471;SDS011;52068;50.710;14.492;2024-02-21T05:45:56;3.17;;;2.28;;
65471;SDS011;52068;50.710;14.492;2024-02-21T05:48:22;3.03;;;2.30;;
65471;SDS011;52068;50.710;14.492;2024-02-21T05:50:48;3.47;;;2.05;;
65471;SDS011;52068;50.710;14.492;2024-02-21T05:53:14;4.88;;;2.20;;
65471;SDS011;52068;50.710;14.492;2024-02-21T05:55:39;3.80;;;1.92;;
65471;SDS011;52068;50.710;14.492;2024-02-21T05:58:05;3.55;;;2.20;;
65471;SDS011;52068;50.710;14.492;2024-02-21T06:00:41;2.90;;;2.20;;
65471;SDS011;52068;50.710;14.492;2024-02-21T06:03:06;2.20;;;2.00;;
65471;SDS011;52068;50.710;14.492;2024-02-21T06:05:36;3.08;;;2.13;;
65471;SDS011;52068;50.710;14.492;2024-02-21T06:08:02;3.25;;;2.30;;
65471;SDS011;52068;50.710;14.492;2024-02-21T06:10:28;3.65;;;2.40;;
65471;SDS011;52068;50.710;14.492;2024-02-21T06:12:53;3.42;;;2.38;;
65471;SDS011;52068;50.710;14.492;2024-02-21T06:15:19;3.15;;;2.25;;
65471;SDS011;52068;50.710;14.492;2024-02-21T06:17:44;3.70;;;2.40;;
65471;SDS011;52068;50.710;14.492;2024-02-21T06:20:09;3.88;;;2.63;;
65471;SDS011;52068;50.710;14.492;2024-02-21T06:22:35;4.03;;;2.33;;
65471;SDS011;52068;50.710;14.492;2024-02-21T06:25:00;2.88;;;2.17;;
65471;SDS011;52068;50.710;14.492;2024-02-21T06:27:27;3.53;;;2.30;;
65471;SDS011;52068;50.710;14.492;2024-02-21T06:29:52;3.95;;;2.15;;
65471;SDS011;52068;50.710;14.492;2024-02-21T06:32:17;3.42;;;2.38;;
65471;SDS011;52068;50.710;14.492;2024-02-21T06:34:43;5.00;;;2.33;;
65471;SDS011;52068;50.710;14.492;2024-02-21T06:37:08;3.30;;;2.20;;
65471;SDS011;52068;50.710;14.492;2024-02-21T06:39:34;3.65;;;2.40;;
65471;SDS011;52068;50.710;14.492;2024-02-21T06:42:02;3.97;;;2.40;;
65471;SDS011;52068;50.710;14.492;2024-02-21T06:44:27;3.22;;;2.17;;
65471;SDS011;52068;50.710;14.492;2024-02-21T06:46:53;2.67;;;1.90;;
65471;SDS011;52068;50.710;14.492;2024-02-21T06:49:19;3.38;;;1.88;;
65471;SDS011;52068;50.710;14.492;2024-02-21T06:51:45;4.90;;;2.17;;
65471;SDS011;52068;50.710;14.492;2024-02-21T06:54:10;4.53;;;2.70;;
65471;SDS011;52068;50.710;14.492;2024-02-21T06:56:36;3.17;;;2.28;;
65471;SDS011;52068;50.710;14.492;2024-02-21T06:59:02;3.20;;;2.10;;
65471;SDS011;52068;50.710;14.492;2024-02-21T07:01:28;5.10;;;2.40;;
65471;SDS011;52068;50.710;14.492;2024-02-21T07:03:54;3.65;;;2.45;;
65471;SDS011;52068;50.710;14.492;2024-02-21T07:06:19;3.45;;;2.63;;
65471;SDS011;52068;50.710;14.492;2024-02-21T07:08:45;4.05;;;2.65;;
65471;SDS011;52068;50.710;14.492;2024-02-21T07:11:10;5.97;;;3.78;;
65471;SDS011;52068;50.710;14.492;2024-02-21T07:13:36;10.25;;;4.30;;
65471;SDS011;52068;50.710;14.492;2024-02-21T07:16:01;16.27;;;7.22;;
65471;SDS011;52068;50.710;14.492;2024-02-21T07:18:27;15.48;;;7.32;;
65471;SDS011;52068;50.710;14.492;2024-02-21T07:20:52;25.50;;;12.25;;
65471;SDS011;52068;50.710;14.492;2024-02-21T07:23:18;25.50;;;10.05;;
65471;SDS011;52068;50.710;14.492;2024-02-21T07:25:43;23.98;;;10.15;;
65471;SDS011;52068;50.710;14.492;2024-02-21T07:28:09;29.75;;;13.85;;
65471;SDS011;52068;50.710;14.492;2024-02-21T07:30:34;34.70;;;15.38;;
65471;SDS011;52068;50.710;14.492;2024-02-21T07:33:00;39.03;;;18.38;;
65471;SDS011;52068;50.710;14.492;2024-02-21T07:35:25;32.13;;;16.05;;
65471;SDS011;52068;50.710;14.492;2024-02-21T07:37:51;49.90;;;22.67;;
65471;SDS011;52068;50.710;14.492;2024-02-21T07:40:16;47.42;;;21.75;;
65471;SDS011;52068;50.710;14.492;2024-02-21T07:42:42;60.25;;;24.75;;
65471;SDS011;52068;50.710;14.492;2024-02-21T07:45:08;42.17;;;18.08;;
65471;SDS011;52068;50.710;14.492;2024-02-21T07:47:35;54.80;;;22.98;;
65471;SDS011;52068;50.710;14.492;2024-02-21T07:50:01;55.00;;;24.23;;
65471;SDS011;52068;50.710;14.492;2024-02-21T07:52:27;55.95;;;24.80;;
65471;SDS011;52068;50.710;14.492;2024-02-21T07:54:52;56.25;;;24.88;;
65471;SDS011;52068;50.710;14.492;2024-02-21T07:57:18;50.22;;;23.95;;
65471;SDS011;52068;50.710;14.492;2024-02-21T07:59:43;51.35;;;23.48;;
65471;SDS011;52068;50.710;14.492;2024-02-21T08:02:09;54.78;;;24.48;;
65471;SDS011;52068;50.710;14.492;2024-02-21T08:04:34;55.33;;;25.60;;
65471;SDS011;52068;50.710;14.492;2024-02-21T08:07:00;55.22;;;24.70;;
65471;SDS011;52068;50.710;14.492;2024-02-21T08:09:29;64.32;;;26.25;;
65471;SDS011;52068;50.710;14.492;2024-02-21T08:11:55;59.47;;;25.15;;
65471;SDS011;52068;50.710;14.492;2024-02-21T08:14:20;60.05;;;25.85;;
65471;SDS011;52068;50.710;14.492;2024-02-21T08:16:46;54.53;;;24.92;;
65471;SDS011;52068;50.710;14.492;2024-02-21T08:19:12;61.05;;;25.70;;
65471;SDS011;52068;50.710;14.492;2024-02-21T08:21:37;62.10;;;28.48;;
65471;SDS011;52068;50.710;14.492;2024-02-21T08:24:03;64.68;;;26.73;;
65471;SDS011;52068;50.710;14.492;2024-02-21T08:26:28;57.95;;;26.42;;
65471;SDS011;52068;50.710;14.492;2024-02-21T08:28:56;55.45;;;25.27;;
65471;SDS011;52068;50.710;14.492;2024-02-21T08:31:25;60.50;;;26.60;;
65471;SDS011;52068;50.710;14.492;2024-02-21T08:33:56;51.28;;;24.60;;
65471;SDS011;52068;50.710;14.492;2024-02-21T08:36:27;60.15;;;26.25;;
65471;SDS011;52068;50.710;14.492;2024-02-21T08:38:57;57.40;;;26.00;;
65471;SDS011;52068;50.710;14.492;2024-02-21T08:41:23;54.92;;;26.23;;
65471;SDS011;52068;50.710;14.492;2024-02-21T08:43:52;59.92;;;26.90;;
65471;SDS011;52068;50.710;14.492;2024-02-21T08:46:21;51.33;;;26.38;;
65471;SDS011;52068;50.710;14.492;2024-02-21T08:48:46;53.15;;;25.45;;
65471;SDS011;52068;50.710;14.492;2024-02-21T08:51:13;57.63;;;26.38;;
65471;SDS011;52068;50.710;14.492;2024-02-21T08:53:39;57.72;;;25.25;;
65471;SDS011;52068;50.710;14.492;2024-02-21T08:56:04;62.17;;;26.95;;
65471;SDS011;52068;50.710;14.492;2024-02-21T08:58:30;53.97;;;25.00;;
65471;SDS011;52068;50.710;14.492;2024-02-21T09:00:56;52.90;;;25.85;;
65471;SDS011;52068;50.710;14.492;2024-02-21T09:03:22;54.35;;;25.67;;
65471;SDS011;52068;50.710;14.492;2024-02-21T09:05:47;57.47;;;25.92;;
65471;SDS011;52068;50.710;14.492;2024-02-21T09:08:12;54.72;;;25.25;;
65471;SDS011;52068;50.710;14.492;2024-02-21T09:10:39;55.03;;;25.45;;
65471;SDS011;52068;50.710;14.492;2024-02-21T09:13:04;50.45;;;24.77;;
65471;SDS011;52068;50.710;14.492;2024-02-21T09:15:30;49.53;;;24.55;;
65471;SDS011;52068;50.710;14.492;2024-02-21T09:17:56;46.17;;;23.83;;
65471;SDS011;52068;50.710;14.492;2024-02-21T09:20:22;53.97;;;25.88;;
65471;SDS011;52068;50.710;14.492;2024-02-21T09:22:47;52.92;;;24.65;;
65471;SDS011;52068;50.710;14.492;2024-02-21T09:25:12;48.70;;;23.52;;
65471;SDS011;52068;50.710;14.492;2024-02-21T09:27:38;51.15;;;25.02;;
65471;SDS011;52068;50.710;14.492;2024-02-21T09:30:04;52.42;;;23.50;;
65471;SDS011;52068;50.710;14.492;2024-02-21T09:32:31;45.47;;;23.55;;
65471;SDS011;52068;50.710;14.492;2024-02-21T09:34:57;42.42;;;23.02;;
65471;SDS011;52068;50.710;14.492;2024-02-21T09:37:23;50.45;;;24.30;;
65471;SDS011;52068;50.710;14.492;2024-02-21T09:39:49;44.47;;;22.55;;
65471;SDS011;52068;50.710;14.492;2024-02-21T09:42:15;44.20;;;23.23;;
65471;SDS011;52068;50.710;14.492;2024-02-21T09:44:45;47.38;;;22.17;;
65471;SDS011;52068;50.710;14.492;2024-02-21T09:47:17;44.70;;;22.48;;
65471;SDS011;52068;50.710;14.492;2024-02-21T09:49:47;46.33;;;22.98;;
65471;SDS011;52068;50.710;14.492;2024-02-21T09:52:13;42.88;;;22.23;;
65471;SDS011;52068;50.710;14.492;2024-02-21T09:54:40;44.15;;;22.10;;
65471;SDS011;52068;50.710;14.492;2024-02-21T09:57:10;42.58;;;20.27;;
65471;SDS011;52068;50.710;14.492;2024-02-21T09:59:37;42.10;;;21.08;;
65471;SDS011;52068;50.710;14.492;2024-02-21T10:02:03;46.45;;;22.10;;
65471;SDS011;52068;50.710;14.492;2024-02-21T10:04:29;42.85;;;20.85;;
65471;SDS011;52068;50.710;14.492;2024-02-21T10:06:55;44.78;;;22.00;;
65471;SDS011;52068;50.710;14.492;2024-02-21T10:09:24;40.10;;;20.05;;
65471;SDS011;52068;50.710;14.492;2024-02-21T10:11:53;41.38;;;21.08;;
65471;SDS011;52068;50.710;14.492;2024-02-21T10:14:18;42.90;;;19.98;;
65471;SDS011;52068;50.710;14.492;2024-02-21T10:16:47;39.03;;;19.52;;
65471;SDS011;52068;50.710;14.492;2024-02-21T10:19:20;40.50;;;20.13;;
65471;SDS011;52068;50.710;14.492;2024-02-21T10:22:04;39.13;;;19.67;;
65471;SDS011;52068;50.710;14.492;2024-02-21T10:24:32;38.25;;;18.98;;
65471;SDS011;52068;50.710;14.492;2024-02-21T10:27:02;42.47;;;19.98;;
65471;SDS011;52068;50.710;14.492;2024-02-21T10:29:33;36.92;;;18.40;;
65471;SDS011;52068;50.710;14.492;2024-02-21T10:32:05;38.88;;;19.38;;
65471;SDS011;52068;50.710;14.492;2024-02-21T10:37:04;36.95;;;19.92;;
65471;SDS011;52068;50.710;14.492;2024-02-21T10:39:34;36.55;;;18.58;;
65471;SDS011;52068;50.710;14.492;2024-02-21T10:42:01;34.80;;;18.58;;
65471;SDS011;52068;50.710;14.492;2024-02-21T10:44:33;41.28;;;18.70;;
65471;SDS011;52068;50.710;14.492;2024-02-21T10:47:01;37.55;;;17.90;;
65471;SDS011;52068;50.710;14.492;2024-02-21T10:49:32;30.95;;;17.23;;
65471;SDS011;52068;50.710;14.492;2024-02-21T10:54:55;31.80;;;17.17;;
65471;SDS011;52068;50.710;14.492;2024-02-21T10:57:22;32.40;;;17.73;;
65471;SDS011;52068;50.710;14.492;2024-02-21T10:59:49;34.13;;;17.42;;
65471;SDS011;52068;50.710;14.492;2024-02-21T11:02:15;30.45;;;16.63;;
65471;SDS011;52068;50.710;14.492;2024-02-21T11:04:41;32.72;;;16.55;;
65471;SDS011;52068;50.710;14.492;2024-02-21T11:07:07;35.03;;;16.05;;
65471;SDS011;52068;50.710;14.492;2024-02-21T11:09:33;32.08;;;15.95;;
65471;SDS011;52068;50.710;14.492;2024-02-21T11:12:03;32.80;;;16.73;;
65471;SDS011;52068;50.710;14.492;2024-02-21T11:14:30;36.55;;;16.90;;
65471;SDS011;52068;50.710;14.492;2024-02-21T11:16:57;28.65;;;15.88;;
65471;SDS011;52068;50.710;14.492;2024-02-21T11:19:24;32.08;;;16.80;;
65471;SDS011;52068;50.710;14.492;2024-02-21T11:21:51;30.08;;;15.65;;
65471;SDS011;52068;50.710;14.492;2024-02-21T11:26:55;27.67;;;15.25;;
65471;SDS011;52068;50.710;14.492;2024-02-21T11:29:25;29.45;;;15.38;;
65471;SDS011;52068;50.710;14.492;2024-02-21T11:31:53;30.17;;;15.65;;
65471;SDS011;52068;50.710;14.492;2024-02-21T11:34:19;27.90;;;15.27;;
65471;SDS011;52068;50.710;14.492;2024-02-21T11:36:48;26.27;;;14.10;;
65471;SDS011;52068;50.710;14.492;2024-02-21T11:39:21;28.20;;;15.40;;
65471;SDS011;52068;50.710;14.492;2024-02-21T11:42:05;28.45;;;14.00;;
65471;SDS011;52068;50.710;14.492;2024-02-21T11:46:59;23.98;;;13.05;;
65471;SDS011;52068;50.710;14.492;2024-02-21T11:49:25;25.65;;;14.02;;
65471;SDS011;52068;50.710;14.492;2024-02-21T11:52:00;29.55;;;14.68;;
65471;SDS011;52068;50.710;14.492;2024-02-21T11:54:28;26.38;;;13.25;;
65471;SDS011;52068;50.710;14.492;2024-02-21T11:56:54;26.15;;;13.57;;
65471;SDS011;52068;50.710;14.492;2024-02-21T11:59:19;26.20;;;13.82;;
65471;SDS011;52068;50.710;14.492;2024-02-21T12:01:45;26.13;;;13.57;;
65471;SDS011;52068;50.710;14.492;2024-02-21T12:04:11;23.48;;;12.85;;
65471;SDS011;52068;50.710;14.492;2024-02-21T12:06:36;25.55;;;13.15;;
65471;SDS011;52068;50.710;14.492;2024-02-21T12:09:02;26.95;;;13.27;;
65471;SDS011;52068;50.710;14.492;2024-02-21T12:11:27;26.08;;;13.48;;
65471;SDS011;52068;50.710;14.492;2024-02-21T12:14:02;25.08;;;13.88;;
65471;SDS011;52068;50.710;14.492;2024-02-21T12:16:30;24.08;;;13.32;;
65471;SDS011;52068;50.710;14.492;2024-02-21T12:18:56;24.08;;;13.27;;
65471;SDS011;52068;50.710;14.492;2024-02-21T12:21:26;22.65;;;12.70;;
65471;SDS011;52068;50.710;14.492;2024-02-21T12:23:54;25.00;;;13.13;;
65471;SDS011;52068;50.710;14.492;2024-02-21T12:26:20;25.38;;;12.73;;
65471;SDS011;52068;50.710;14.492;2024-02-21T12:28:45;22.23;;;12.00;;
65471;SDS011;52068;50.710;14.492;2024-02-21T12:31:11;24.55;;;12.38;;
65471;SDS011;52068;50.710;14.492;2024-02-21T12:33:37;20.75;;;12.23;;
65471;SDS011;52068;50.710;14.492;2024-02-21T12:36:02;22.00;;;11.38;;
65471;SDS011;52068;50.710;14.492;2024-02-21T12:38:29;21.90;;;11.88;;
65471;SDS011;52068;50.710;14.492;2024-02-21T12:40:54;21.92;;;11.70;;
65471;SDS011;52068;50.710;14.492;2024-02-21T12:43:20;20.83;;;11.13;;
65471;SDS011;52068;50.710;14.492;2024-02-21T12:45:47;22.55;;;12.43;;
65471;SDS011;52068;50.710;14.492;2024-02-21T12:48:13;20.30;;;10.88;;
65471;SDS011;52068;50.710;14.492;2024-02-21T12:50:39;21.83;;;11.70;;
65471;SDS011;52068;50.710;14.492;2024-02-21T12:53:05;24.20;;;11.13;;
65471;SDS011;52068;50.710;14.492;2024-02-21T12:55:31;18.80;;;11.35;;
65471;SDS011;52068;50.710;14.492;2024-02-21T12:57:56;22.42;;;11.10;;
65471;SDS011;52068;50.710;14.492;2024-02-21T13:00:27;18.60;;;11.15;;
65471;SDS011;52068;50.710;14.492;2024-02-21T13:02:53;20.17;;;11.15;;
65471;SDS011;52068;50.710;14.492;2024-02-21T13:05:18;19.25;;;10.60;;
65471;SDS011;52068;50.710;14.492;2024-02-21T13:07:44;18.02;;;10.20;;
65471;SDS011;52068;50.710;14.492;2024-02-21T13:10:09;18.13;;;10.48;;
65471;SDS011;52068;50.710;14.492;2024-02-21T13:12:35;18.58;;;10.88;;
65471;SDS011;52068;50.710;14.492;2024-02-21T13:15:00;18.23;;;10.23;;
65471;SDS011;52068;50.710;14.492;2024-02-21T13:17:26;19.00;;;10.45;;
65471;SDS011;52068;50.710;14.492;2024-02-21T13:19:55;19.95;;;10.32;;
65471;SDS011;52068;50.710;14.492;2024-02-21T13:22:20;14.52;;;9.35;;
65471;SDS011;52068;50.710;14.492;2024-02-21T13:24:47;19.85;;;10.45;;
65471;SDS011;52068;50.710;14.492;2024-02-21T13:27:12;19.30;;;10.30;;
65471;SDS011;52068;50.710;14.492;2024-02-21T13:29:38;18.65;;;10.40;;
65471;SDS011;52068;50.710;14.492;2024-02-21T13:32:03;17.67;;;10.20;;
65471;SDS011;52068;50.710;14.492;2024-02-21T13:34:29;18.13;;;9.93;;
65471;SDS011;52068;50.710;14.492;2024-02-21T13:36:54;16.75;;;9.35;;
65471;SDS011;52068;50.710;14.492;2024-02-21T13:39:20;18.42;;;9.82;;
65471;SDS011;52068;50.710;14.492;2024-02-21T13:41:45;18.95;;;9.90;;
65471;SDS011;52068;50.710;14.492;2024-02-21T13:44:11;16.40;;;9.40;;
65471;SDS011;52068;50.710;14.492;2024-02-21T13:46:37;18.35;;;8.93;;
65471;SDS011;52068;50.710;14.492;2024-02-21T13:49:04;15.15;;;8.60;;
65471;SDS011;52068;50.710;14.492;2024-02-21T13:51:35;17.35;;;9.48;;
65471;SDS011;52068;50.710;14.492;2024-02-21T13:54:01;15.25;;;8.95;;
65471;SDS011;52068;50.710;14.492;2024-02-21T13:56:30;17.98;;;9.20;;
65471;SDS011;52068;50.710;14.492;2024-02-21T13:58:57;16.73;;;8.43;;
65471;SDS011;52068;50.710;14.492;2024-02-21T14:01:24;14.63;;;8.35;;
65471;SDS011;52068;50.710;14.492;2024-02-21T14:03:50;15.38;;;8.48;;
65471;SDS011;52068;50.710;14.492;2024-02-21T14:06:15;16.02;;;8.48;;
65471;SDS011;52068;50.710;14.492;2024-02-21T14:08:42;14.98;;;8.45;;
65471;SDS011;52068;50.710;14.492;2024-02-21T14:11:07;15.65;;;8.68;;
65471;SDS011;52068;50.710;14.492;2024-02-21T14:13:33;12.15;;;7.43;;
65471;SDS011;52068;50.710;14.492;2024-02-21T14:15:58;15.35;;;8.27;;
65471;SDS011;52068;50.710;14.492;2024-02-21T14:18:23;17.15;;;8.52;;
65471;SDS011;52068;50.710;14.492;2024-02-21T14:20:49;16.17;;;8.68;;
65471;SDS011;52068;50.710;14.492;2024-02-21T14:23:14;14.68;;;8.15;;
65471;SDS011;52068;50.710;14.492;2024-02-21T14:25:39;13.23;;;7.88;;
65471;SDS011;52068;50.710;14.492;2024-02-21T14:28:07;16.33;;;8.25;;